Stillwater Regional Airport
KSWO : now visible

Airfield :











YOU CAN JOIN US ON...

 
LOGIN :

Register | Disclaimer

   EN    FR    IT 

 









Legend :    VFR   Marginal VFR   IFR   Intensive IFR   Very Intensive IFR
Visi :
Ceiling :
>= 8 km
>= 3000ft
5 to 8 km
1000 to 3000 ft
1500m to 5 km
500 to 1000 ft
800 to 1500m
200 to 500 ft
< 800m
< 200 ft
Symbols :   Thunderstorms  Fog  Heavy snow  Heavy precipitations  Wind > 20 kt






- Airport Elevation : 1000 ft


KSWO - Stillwater Regional

CURRENT METAR :
  • 152353Z 01010KT 10SM CLR 18/03 A3002 RMK AO2 PK WND 01026/2311 SLP158 60000 T01780033 10261 20178 53027

EXPIRED METARs :
  • 152253Z 01019G28KT 10SM CLR 22/04 A2999 RMK AO2 PK WND 36030/2156 RAB03E14 SLP143 P0000 T02170044
  • 152153Z 01017G27KT 10SM SCT065 23/05 A2996 RMK AO2 PK WND 02028/2127 SLP136 T02280050

TAF N/A



MET'MAP, your aeronautical weather chart ! - Copyright ORBIFLY December 2007 - Disclaimer

ORBIFLY MET'MAP TEAM :

Programming & Development : Alexandra Zaïnal
Concept & Development : Baudouin d'Aumeries
Co-Development & Prog : Marc-Olivier Méhu
Technical & hardware support : Manuel Goepfert

Contact : metmap@orbifly.com




SOURCES & CREDITS :

   NOAA       Earth
Advisory